Elena Of London — 2COR3 — position and weather

sailwx.info

Track history (hours):
 
Tides and Currents Weather Stations Pressure Air Temp Water Temp Dewpoint Dewpoint Depression Visibility Wind Speed Wind Dir Waves Ship Positions

Elena Of London

Last reported at 2016-Sep-05 04:29 UTC. Time now 2016-Sep-27 22:25 UTC.
Position N 43°49' E 007°47'.
Warning: this ship's position is 22 days out of date.

Length 44 m; draft 5.2 m.

Type: Sailing vessel. MMSI: 235074534.

Date/timePositionNaut miles runAvg speedWind from/ knotsBaromVisibWave heightAir tempDewpointWater temp
2016-Sep-05 04:29N 43°49' E 007°47'0 0.0
2016-Sep-05 03:26N 43°49' E 007°47'0 0.0
2016-Sep-05 00:26N 43°49' E 007°47'0 0.0
2016-Sep-04 23:05N 43°49' E 007°47'0 0.0
2016-Sep-04 22:27N 43°49' E 007°47'0 0.0
2016-Sep-04 16:07N 43°49' E 007°47'0 0.0
2016-Sep-04 15:33N 43°49' E 007°47'0 0.0
2016-Sep-04 07:15N 43°49' E 007°47'0 0.0
2016-Sep-04 00:32N 43°49' E 007°47'0 0.0
2016-Sep-03 23:26N 43°49' E 007°47'0 0.0
2016-Sep-03 21:33N 43°49' E 007°47'0 0.0
2016-Sep-03 20:13N 43°49' E 007°47'0 0.0
2016-Sep-03 19:11N 43°49' E 007°47'0 0.0
2016-Sep-03 18:33N 43°49' E 007°47'0 0.0
2016-Sep-03 17:33N 43°49' E 007°47'0 0.0
2016-Sep-03 16:21N 43°49' E 007°47'0 0.0
2016-Sep-03 15:33N 43°49' E 007°47'0 0.0
2016-Sep-03 13:31N 43°49' E 007°47'1 0.9
2016-Sep-03 12:30N 43°48' E 007°47'2 2.0
2016-Sep-03 11:25N 43°47' E 007°45'2 2.3
2016-Sep-03 10:29N 43°46' E 007°47'2 2.3
2016-Sep-03 09:33N 43°48' E 007°47'1 0.2
2016-Sep-03 06:26N 43°49' E 007°47'0 0.0
2016-Sep-03 01:16N 43°49' E 007°47'0 0.0
2016-Sep-02 23:21N 43°49' E 007°47'0 0.0
2016-Sep-02 22:33N 43°49' E 007°47'0 0.0
2016-Sep-02 20:33N 43°49' E 007°47'0 0.0
2016-Sep-02 18:22N 43°49' E 007°47'0 0.0
2016-Sep-02 17:33N 43°49' E 007°47'1 0.6
2016-Sep-02 16:33N 43°49' E 007°47'2 2.3
2016-Sep-02 15:33N 43°46' E 007°47'2 2.1
2016-Sep-02 14:33N 43°48' E 007°47'1 1.1
2016-Sep-02 13:33N 43°48' E 007°49'1 1.2
2016-Sep-02 12:33N 43°48' E 007°50'3 2.6
2016-Sep-02 11:30N 43°47' E 007°47'2 2.4
2016-Sep-02 10:33N 43°49' E 007°47'0 0.0
2016-Sep-02 09:32N 43°49' E 007°47'0 0.0
2016-Sep-02 06:31N 43°49' E 007°47'0 0.0
2016-Sep-02 05:30N 43°49' E 007°47'0 0.0
2016-Sep-02 00:22N 43°49' E 007°47'0 0.0
2016-Sep-01 23:33N 43°49' E 007°47'0 0.0
2016-Sep-01 22:33N 43°49' E 007°47'0 0.0
2016-Sep-01 21:30N 43°49' E 007°47'0 0.0
2016-Sep-01 20:33N 43°49' E 007°47'0 0.0
2016-Sep-01 19:33N 43°49' E 007°47'0 0.0
2016-Sep-01 18:32N 43°49' E 007°47'0 0.0
2016-Sep-01 17:33N 43°49' E 007°47'0 0.0
2016-Sep-01 16:33N 43°49' E 007°47'2 1.6
2016-Sep-01 15:33N 43°47' E 007°47'4 3.6
2016-Sep-01 14:33N 43°48' E 007°52'3 3.0
2016-Sep-01 13:33N 43°46' E 007°49'2 2.3
2016-Sep-01 12:33N 43°48' E 007°48'0 0.3
2016-Sep-01 11:34N 43°49' E 007°47'0 0.2
2016-Sep-01 10:22N 43°49' E 007°48'1 0.9
2016-Sep-01 09:30N 43°48' E 007°47'1 1.2
2016-Sep-01 08:30N 43°49' E 007°47'0 0.0
2016-Aug-30 09:25N 43°49' E 007°47'0 0.0
2016-Aug-30 07:25N 43°49' E 007°47'0 0.0
2016-Aug-30 06:30N 43°49' E 007°47'0 0.0
2016-Aug-30 02:15N 43°49' E 007°47'0 0.0
2016-Aug-30 01:24N 43°49' E 007°47'0 0.0
2016-Aug-29 16:22N 43°49' E 007°47'0 0.0
2016-Aug-29 14:32N 43°49' E 007°47'0 0.0
2016-Aug-29 11:29N 43°49' E 007°47'0 0.0
2016-Aug-29 09:28N 43°49' E 007°47'0 0.0
2016-Aug-29 04:11N 43°49' E 007°47'0 0.0
2016-Aug-29 03:33N 43°49' E 007°47'0 0.0
2016-Aug-29 02:23N 43°49' E 007°47'0 0.0
2016-Aug-28 21:24N 43°49' E 007°47'0 0.0
2016-Aug-28 20:27N 43°49' E 007°47'0 0.0
2016-Aug-28 19:32N 43°49' E 007°47'0 0.0
2016-Aug-28 18:34N 43°49' E 007°47'0 0.0
2016-Aug-28 17:33N 43°49' E 007°47'0 0.0
2016-Aug-28 16:25N 43°49' E 007°47'0 0.0
2016-Aug-28 15:14N 43°49' E 007°47'0 0.0
2016-Aug-28 14:15N 43°49' E 007°47'0 0.0
2016-Aug-28 09:19N 43°49' E 007°47'0 0.0
2016-Aug-28 04:32N 43°49' E 007°47'0 0.0
2016-Aug-28 03:27N 43°49' E 007°47'0 0.0
2016-Aug-28 00:21N 43°49' E 007°47'0 0.0
2016-Aug-27 23:32N 43°49' E 007°47'0 0.0
2016-Aug-27 22:32N 43°49' E 007°47'0 0.0
2016-Aug-27 21:27N 43°49' E 007°47'0 0.0
2016-Aug-27 20:29N 43°49' E 007°47'0 0.0
2016-Aug-27 19:33N 43°49' E 007°47'0 0.0
2016-Aug-27 18:34N 43°49' E 007°47'0 0.0
2016-Aug-27 17:33N 43°49' E 007°47'0 0.0
2016-Aug-27 16:33N 43°49' E 007°47'2 1.7
2016-Aug-27 15:33N 43°47' E 007°47'31 9.9
2016-Aug-27 12:27N 43°20' E 008°08'910.2
2016-Aug-27 11:34N 43°12' E 008°14'10 9.9
2016-Aug-27 10:33N 43°04' E 008°20'10 9.7
2016-Aug-27 09:33N 42°56' E 008°28'10 9.6
2016-Aug-27 08:33N 42°48' E 008°35'16 3.9
2016-Aug-27 04:28N 42°34' E 008°46'0 0.0
2016-Aug-27 03:31N 42°34' E 008°46'0 0.0
2016-Aug-26 22:28N 42°34' E 008°46'0 0.0
2016-Aug-26 21:22N 42°34' E 008°46'0 0.0
2016-Aug-26 20:28N 42°34' E 008°46'0 0.1
2016-Aug-26 18:26N 42°34' E 008°46'0 0.0
2016-Aug-26 17:29N 42°34' E 008°46'0 0.0
2016-Aug-26 16:33N 42°34' E 008°46'8 8.0
2016-Aug-26 15:33N 42°40' E 008°53'8 7.6
2016-Aug-26 14:33N 42°43' E 009°03'10 9.6
2016-Aug-26 13:33N 42°45' E 009°15'  
Track history (hours):
 
Tides and Currents Weather Stations Pressure Air Temp Water Temp Dewpoint Dewpoint Depression Visibility Wind Speed Wind Dir Waves Ship Positions

Elena Of London

Last reported at 2016-Sep-05 04:29 UTC. Time now 2016-Sep-27 22:25 UTC.
Position N 43°49' E 007°47'.
Warning: this ship's position is 22 days out of date.

Length 44 m; draft 5.2 m.

Type: Sailing vessel. MMSI: 235074534.

Date/timePositionNaut miles runAvg speedWind from/ knotsBaromVisibWave heightAir tempDewpointWater temp
2016-Sep-05 04:29N 43°49' E 007°47'0 0.0
2016-Sep-05 03:26N 43°49' E 007°47'0 0.0
2016-Sep-05 00:26N 43°49' E 007°47'0 0.0
2016-Sep-04 23:05N 43°49' E 007°47'0 0.0
2016-Sep-04 22:27N 43°49' E 007°47'0 0.0
2016-Sep-04 16:07N 43°49' E 007°47'0 0.0
2016-Sep-04 15:33N 43°49' E 007°47'0 0.0
2016-Sep-04 07:15N 43°49' E 007°47'0 0.0
2016-Sep-04 00:32N 43°49' E 007°47'0 0.0
2016-Sep-03 23:26N 43°49' E 007°47'0 0.0
2016-Sep-03 21:33N 43°49' E 007°47'0 0.0
2016-Sep-03 20:13N 43°49' E 007°47'0 0.0
2016-Sep-03 19:11N 43°49' E 007°47'0 0.0
2016-Sep-03 18:33N 43°49' E 007°47'0 0.0
2016-Sep-03 17:33N 43°49' E 007°47'0 0.0
2016-Sep-03 16:21N 43°49' E 007°47'0 0.0
2016-Sep-03 15:33N 43°49' E 007°47'0 0.0
2016-Sep-03 13:31N 43°49' E 007°47'1 0.9
2016-Sep-03 12:30N 43°48' E 007°47'2 2.0
2016-Sep-03 11:25N 43°47' E 007°45'2 2.3
2016-Sep-03 10:29N 43°46' E 007°47'2 2.3
2016-Sep-03 09:33N 43°48' E 007°47'1 0.2
2016-Sep-03 06:26N 43°49' E 007°47'0 0.0
2016-Sep-03 01:16N 43°49' E 007°47'0 0.0
2016-Sep-02 23:21N 43°49' E 007°47'0 0.0
2016-Sep-02 22:33N 43°49' E 007°47'0 0.0
2016-Sep-02 20:33N 43°49' E 007°47'0 0.0
2016-Sep-02 18:22N 43°49' E 007°47'0 0.0
2016-Sep-02 17:33N 43°49' E 007°47'1 0.6
2016-Sep-02 16:33N 43°49' E 007°47'2 2.3
2016-Sep-02 15:33N 43°46' E 007°47'2 2.1
2016-Sep-02 14:33N 43°48' E 007°47'1 1.1
2016-Sep-02 13:33N 43°48' E 007°49'1 1.2
2016-Sep-02 12:33N 43°48' E 007°50'3 2.6
2016-Sep-02 11:30N 43°47' E 007°47'2 2.4
2016-Sep-02 10:33N 43°49' E 007°47'0 0.0
2016-Sep-02 09:32N 43°49' E 007°47'0 0.0
2016-Sep-02 06:31N 43°49' E 007°47'0 0.0
2016-Sep-02 05:30N 43°49' E 007°47'0 0.0
2016-Sep-02 00:22N 43°49' E 007°47'0 0.0
2016-Sep-01 23:33N 43°49' E 007°47'0 0.0
2016-Sep-01 22:33N 43°49' E 007°47'0 0.0
2016-Sep-01 21:30N 43°49' E 007°47'0 0.0
2016-Sep-01 20:33N 43°49' E 007°47'0 0.0
2016-Sep-01 19:33N 43°49' E 007°47'0 0.0
2016-Sep-01 18:32N 43°49' E 007°47'0 0.0
2016-Sep-01 17:33N 43°49' E 007°47'0 0.0
2016-Sep-01 16:33N 43°49' E 007°47'2 1.6
2016-Sep-01 15:33N 43°47' E 007°47'4 3.6
2016-Sep-01 14:33N 43°48' E 007°52'3 3.0
2016-Sep-01 13:33N 43°46' E 007°49'2 2.3
2016-Sep-01 12:33N 43°48' E 007°48'0 0.3
2016-Sep-01 11:34N 43°49' E 007°47'0 0.2
2016-Sep-01 10:22N 43°49' E 007°48'1 0.9
2016-Sep-01 09:30N 43°48' E 007°47'1 1.2
2016-Sep-01 08:30N 43°49' E 007°47'0 0.0
2016-Aug-30 09:25N 43°49' E 007°47'0 0.0
2016-Aug-30 07:25N 43°49' E 007°47'0 0.0
2016-Aug-30 06:30N 43°49' E 007°47'0 0.0
2016-Aug-30 02:15N 43°49' E 007°47'0 0.0
2016-Aug-30 01:24N 43°49' E 007°47'0 0.0
2016-Aug-29 16:22N 43°49' E 007°47'0 0.0
2016-Aug-29 14:32N 43°49' E 007°47'0 0.0
2016-Aug-29 11:29N 43°49' E 007°47'0 0.0
2016-Aug-29 09:28N 43°49' E 007°47'0 0.0
2016-Aug-29 04:11N 43°49' E 007°47'0 0.0
2016-Aug-29 03:33N 43°49' E 007°47'0 0.0
2016-Aug-29 02:23N 43°49' E 007°47'0 0.0
2016-Aug-28 21:24N 43°49' E 007°47'0 0.0
2016-Aug-28 20:27N 43°49' E 007°47'0 0.0
2016-Aug-28 19:32N 43°49' E 007°47'0 0.0
2016-Aug-28 18:34N 43°49' E 007°47'0 0.0
2016-Aug-28 17:33N 43°49' E 007°47'0 0.0
2016-Aug-28 16:25N 43°49' E 007°47'0 0.0
2016-Aug-28 15:14N 43°49' E 007°47'0 0.0
2016-Aug-28 14:15N 43°49' E 007°47'0 0.0
2016-Aug-28 09:19N 43°49' E 007°47'0 0.0
2016-Aug-28 04:32N 43°49' E 007°47'0 0.0
2016-Aug-28 03:27N 43°49' E 007°47'0 0.0
2016-Aug-28 00:21N 43°49' E 007°47'0 0.0
2016-Aug-27 23:32N 43°49' E 007°47'0 0.0
2016-Aug-27 22:32N 43°49' E 007°47'0 0.0
2016-Aug-27 21:27N 43°49' E 007°47'0 0.0
2016-Aug-27 20:29N 43°49' E 007°47'0 0.0
2016-Aug-27 19:33N 43°49' E 007°47'0 0.0
2016-Aug-27 18:34N 43°49' E 007°47'0 0.0
2016-Aug-27 17:33N 43°49' E 007°47'0 0.0
2016-Aug-27 16:33N 43°49' E 007°47'2 1.7
2016-Aug-27 15:33N 43°47' E 007°47'31 9.9
2016-Aug-27 12:27N 43°20' E 008°08'910.2
2016-Aug-27 11:34N 43°12' E 008°14'10 9.9
2016-Aug-27 10:33N 43°04' E 008°20'10 9.7
2016-Aug-27 09:33N 42°56' E 008°28'10 9.6
2016-Aug-27 08:33N 42°48' E 008°35'16 3.9
2016-Aug-27 04:28N 42°34' E 008°46'0 0.0
2016-Aug-27 03:31N 42°34' E 008°46'0 0.0
2016-Aug-26 22:28N 42°34' E 008°46'0 0.0
2016-Aug-26 21:22N 42°34' E 008°46'0 0.0
2016-Aug-26 20:28N 42°34' E 008°46'0 0.1
2016-Aug-26 18:26N 42°34' E 008°46'0 0.0
2016-Aug-26 17:29N 42°34' E 008°46'0 0.0
2016-Aug-26 16:33N 42°34' E 008°46'8 8.0
2016-Aug-26 15:33N 42°40' E 008°53'8 7.6
2016-Aug-26 14:33N 42°43' E 009°03'10 9.6
2016-Aug-26 13:33N 42°45' E 009°15'  

Dump ship's entire track history